Time;durP1;ratioP1;P1;durP2;ratioP2;P2;SDS_P1;SDS_P2;PMS_P1;PMS_P2;Temp;Humidity;BMP_temperature;BMP_pressure;BME280_temperature;BME280_humidity;BME280_pressure;Samples;Min_cycle;Max_cycle;Signal;HPM_P1;HPM_P2
2022/08/21 00:02:15;;;;;;;10.53;4.97;;;;;;;-145.69;100.00;71688.94;5072309;28;20248;-76
2022/08/21 00:04:42;;;;;;;8.13;4.80;;;;;;;-145.69;100.00;71696.91;5072203;28;20700;-76
2022/08/21 00:07:08;;;;;;;8.43;4.80;;;;;;;-145.69;100.00;71700.88;5072380;28;20542;-77
2022/08/21 00:09:35;;;;;;;7.37;5.10;;;;;;;-145.69;100.00;71706.84;5072523;28;20293;-76
2022/08/21 00:12:04;;;;;;;6.70;4.67;;;;;;;-145.69;100.00;71716.81;5070970;28;20227;-76
2022/08/21 00:14:31;;;;;;;10.10;4.73;;;;;;;-145.69;100.00;71712.81;5071275;28;20557;-77
2022/08/21 00:16:57;;;;;;;11.27;5.90;;;;;;;-145.69;100.00;71700.88;5058789;28;20210;-75
2022/08/21 00:19:24;;;;;;;11.53;5.90;;;;;;;-145.69;100.00;71696.91;5072235;28;20557;-75
2022/08/21 00:21:51;;;;;;;8.20;4.80;;;;;;;-145.69;100.00;71706.84;5072859;28;20293;-75
2022/08/21 00:24:18;;;;;;;9.40;5.17;;;;;;;-145.69;100.00;71708.84;5057594;28;20191;-77
2022/08/21 00:26:46;;;;;;;11.13;5.57;;;;;;;-145.69;100.00;71698.91;5055892;28;20200;-76
2022/08/21 00:29:13;;;;;;;15.83;5.60;;;;;;;-145.69;100.00;71700.88;5055754;28;20199;-76
2022/08/21 00:31:40;;;;;;;13.10;6.03;;;;;;;-145.69;100.00;71704.88;5055912;28;20226;-77
2022/08/21 00:34:07;;;;;;;8.83;5.60;;;;;;;-145.69;100.00;71708.84;5069314;28;20190;-76
2022/08/21 00:36:35;;;;;;;14.57;5.30;;;;;;;-145.69;100.00;71716.81;5075758;28;20198;-75
2022/08/21 00:39:02;;;;;;;9.23;5.40;;;;;;;-145.69;100.00;71716.81;5075622;28;20662;-76
2022/08/21 00:41:28;;;;;;;9.95;5.25;;;;;;;-145.69;100.00;71718.78;5075351;28;20442;-76
2022/08/21 00:43:55;;;;;;;11.77;5.60;;;;;;;-145.69;100.00;71716.81;5075473;28;20222;-74
2022/08/21 00:46:24;;;;;;;10.00;5.77;;;;;;;-145.69;100.00;71722.78;5075569;28;20206;-76
2022/08/21 00:48:50;;;;;;;11.93;5.20;;;;;;;-145.69;100.00;71720.78;5075081;28;20227;-76
2022/08/21 00:51:23;;;;;;;10.03;5.80;;;;;;;-145.69;100.00;71722.78;5075484;28;20237;-75
2022/08/21 00:53:53;;;;;;;10.43;4.83;;;;;;;-145.69;100.00;71730.72;5075470;28;20203;-75
2022/08/21 00:56:22;;;;;;;9.30;5.10;;;;;;;-145.69;100.00;71732.72;5075227;28;20661;-76
2022/08/21 00:58:49;;;;;;;12.67;5.27;;;;;;;-145.69;100.00;71726.75;5075360;28;20206;-76
2022/08/21 01:01:15;;;;;;;12.20;5.70;;;;;;;-145.69;100.00;71734.72;5075376;28;20202;-76
2022/08/21 01:03:43;;;;;;;14.30;5.47;;;;;;;-145.69;100.00;71724.75;5075044;28;20195;-75
2022/08/21 01:06:10;;;;;;;15.07;5.50;;;;;;;-145.69;100.00;71724.75;5075168;28;20210;-74
2022/08/21 01:08:36;;;;;;;15.83;5.60;;;;;;;-145.69;100.00;71724.75;5075010;28;20199;-75
2022/08/21 01:11:04;;;;;;;12.47;5.90;;;;;;;-145.69;100.00;71716.81;5074544;28;20195;-76
2022/08/21 01:13:33;;;;;;;15.40;6.13;;;;;;;-145.69;100.00;71712.81;5075097;28;20653;-75
2022/08/21 01:16:03;;;;;;;11.87;5.83;;;;;;;-145.69;100.00;71720.78;5074321;28;20574;-76
2022/08/21 01:18:30;;;;;;;11.53;5.53;;;;;;;-145.69;100.00;71724.75;5075076;28;20194;-76
2022/08/21 01:21:04;;;;;;;13.27;5.63;;;;;;;-145.69;100.00;71734.72;5074915;28;20206;-76
2022/08/21 01:23:30;;;;;;;12.53;6.13;;;;;;;-145.69;100.00;71732.72;5074352;28;20199;-76
2022/08/21 01:25:57;;;;;;;15.27;5.07;;;;;;;-145.69;100.00;71748.66;5074833;28;20202;-75
2022/08/21 01:28:25;;;;;;;10.50;5.20;;;;;;;-145.69;100.00;71738.69;5074866;28;20210;-78
2022/08/21 01:30:54;;;;;;;18.27;6.07;;;;;;;-145.69;100.00;71734.72;5074569;28;20195;-78
2022/08/21 01:33:24;;;;;;;13.23;6.33;;;;;;;-145.69;100.00;71738.69;5073972;28;20553;-77
2022/08/21 01:35:51;;;;;;;14.10;6.30;;;;;;;-145.69;100.00;71726.75;5074366;28;20203;-77
2022/08/21 01:38:19;;;;;;;9.47;5.90;;;;;;;-145.69;100.00;71738.69;5075205;28;20205;-76
2022/08/21 01:40:46;;;;;;;16.60;6.00;;;;;;;-145.69;100.00;71738.69;5074664;28;20234;-76
2022/08/21 01:43:12;;;;;;;13.70;6.47;;;;;;;-145.69;100.00;71726.75;5074423;28;20203;-76
2022/08/21 01:45:38;;;;;;;12.47;6.07;;;;;;;-145.69;100.00;71730.72;5074001;28;20194;-76
2022/08/21 01:48:05;;;;;;;17.20;6.27;;;;;;;-145.69;100.00;71728.75;5074103;28;20233;-76
2022/08/21 01:50:32;;;;;;;14.70;5.70;;;;;;;-145.69;100.00;71728.75;5074022;28;20460;-76
2022/08/21 01:52:59;;;;;;;13.17;6.40;;;;;;;-145.69;100.00;71724.75;5074054;28;20227;-76
2022/08/21 01:55:26;;;;;;;10.03;5.33;;;;;;;-145.69;100.00;71744.66;5054159;28;20196;-76
2022/08/21 01:57:53;;;;;;;13.63;6.43;;;;;;;-145.69;100.00;71730.72;5054030;28;20294;-76
2022/08/21 02:00:23;;;;;;;15.83;6.57;;;;;;;-145.69;100.00;71724.75;5058060;28;20197;-76
2022/08/21 02:02:50;;;;;;;14.73;6.63;;;;;;;-145.69;100.00;71724.75;5074274;28;20194;-76
2022/08/21 02:05:18;;;;;;;12.77;5.87;;;;;;;-145.69;100.00;71738.69;5073881;28;20214;-76
2022/08/21 02:07:47;;;;;;;16.13;6.17;;;;;;;-145.69;100.00;71734.72;5074183;28;20557;-76
2022/08/21 02:10:19;;;;;;;14.70;5.37;;;;;;;-145.69;100.00;71742.69;5073756;28;20195;-77
2022/08/21 02:12:47;;;;;;;13.27;6.10;;;;;;;-145.69;100.00;71748.66;5073973;28;20231;-76
2022/08/21 02:15:13;;;;;;;11.37;6.03;;;;;;;-145.69;100.00;71742.69;5073614;28;20199;-75
2022/08/21 02:17:42;;;;;;;16.93;6.53;;;;;;;-145.69;100.00;71756.59;5073651;28;20202;-75
2022/08/21 02:20:11;;;;;;;15.63;6.00;;;;;;;-145.69;100.00;71752.63;5073679;28;20293;-78
2022/08/21 02:22:38;;;;;;;13.53;5.47;;;;;;;-145.69;100.00;71752.63;5073766;28;20198;-78
2022/08/21 02:25:05;;;;;;;18.33;6.23;;;;;;;-145.69;100.00;71752.63;5073614;28;20198;-77
2022/08/21 02:27:38;;;;;;;19.40;6.10;;;;;;;-145.69;100.00;71764.56;5073543;28;20225;-76
2022/08/21 02:30:09;;;;;;;13.60;6.70;;;;;;;-145.69;100.00;71762.56;5072991;28;20205;-76
2022/08/21 02:32:35;;;;;;;14.73;6.77;;;;;;;-145.69;100.00;71744.66;5071549;28;20239;-75
2022/08/21 02:35:02;;;;;;;16.30;7.83;;;;;;;-145.69;100.00;71738.69;5053643;28;20195;-76
2022/08/21 02:37:28;;;;;;;16.03;7.10;;;;;;;-145.69;100.00;71744.66;5053720;28;20203;-76
2022/08/21 02:39:55;;;;;;;22.43;7.67;;;;;;;-145.69;100.00;71742.69;5067306;28;20210;-75
2022/08/21 02:42:21;;;;;;;16.57;6.30;;;;;;;-145.69;100.00;71756.59;5073221;28;20205;-77
2022/08/21 02:44:47;;;;;;;18.17;6.37;;;;;;;-145.69;100.00;71748.66;5072087;28;20191;-77
2022/08/21 02:47:16;;;;;;;16.10;6.63;;;;;;;-145.69;100.00;71744.66;5073213;28;20235;-77
2022/08/21 02:49:42;;;;;;;16.33;5.97;;;;;;;-145.69;100.00;71756.59;5073495;28;20195;-76
2022/08/21 02:52:09;;;;;;;15.23;5.83;;;;;;;-145.69;100.00;71764.56;5073176;28;20230;-76
2022/08/21 02:54:35;;;;;;;21.00;7.40;;;;;;;-145.69;100.00;71746.66;5073138;28;20208;-76
2022/08/21 02:57:02;;;;;;;15.33;7.50;;;;;;;-145.69;100.00;71740.69;5073058;28;20202;-75
2022/08/21 02:59:28;;;;;;;21.47;6.93;;;;;;;-145.69;100.00;71748.66;5072965;28;20202;-76
2022/08/21 03:01:55;;;;;;;14.73;7.10;;;;;;;-145.69;100.00;71756.59;5073142;28;20209;-76
2022/08/21 03:04:23;;;;;;;16.90;7.63;;;;;;;-145.69;100.00;71760.59;5073090;28;20241;-75
2022/08/21 03:06:49;;;;;;;19.03;6.33;;;;;;;-145.69;100.00;71776.50;5073074;28;20199;-77
2022/08/21 03:09:16;;;;;;;13.60;6.50;;;;;;;-145.69;100.00;71772.53;5072546;28;20692;-76
2022/08/21 03:11:43;;;;;;;17.93;6.80;;;;;;;-145.69;100.00;71764.56;5072943;28;20553;-77
2022/08/21 03:14:10;;;;;;;23.93;8.07;;;;;;;-145.69;100.00;71746.66;5072893;28;20194;-77
2022/08/21 03:16:36;;;;;;;16.77;7.20;;;;;;;-145.69;100.00;71736.72;5072942;28;20205;-76
2022/08/21 03:19:03;;;;;;;18.73;6.90;;;;;;;-145.69;100.00;71738.69;5072973;28;20657;-76
2022/08/21 03:21:30;;;;;;;15.77;7.57;;;;;;;-145.69;100.00;71740.69;5072819;28;20206;-76
2022/08/21 03:23:57;;;;;;;17.47;6.93;;;;;;;-145.69;100.00;71744.66;5073265;28;20205;-76
2022/08/21 03:26:24;;;;;;;12.17;7.20;;;;;;;-145.69;100.00;71750.63;5072710;28;20194;-76
2022/08/21 03:28:50;;;;;;;16.00;6.87;;;;;;;-145.69;100.00;71754.63;5072655;28;20191;-76
2022/08/21 03:31:18;;;;;;;19.83;7.07;;;;;;;-145.69;100.00;71766.56;5072927;28;20203;-76
2022/08/21 03:33:44;;;;;;;21.80;7.00;;;;;;;-145.69;100.00;71758.59;5072734;28;20230;-76
2022/08/21 03:36:11;;;;;;;18.83;7.70;;;;;;;-145.69;100.00;71764.56;5072903;28;20206;-76
2022/08/21 03:38:39;;;;;;;16.47;6.80;;;;;;;-145.69;100.00;71776.50;5072596;28;20218;-76
2022/08/21 03:41:07;;;;;;;15.60;6.93;;;;;;;-145.69;100.00;71774.50;5072311;28;20645;-76
2022/08/21 03:43:34;;;;;;;13.33;6.83;;;;;;;-145.69;100.00;71784.47;5072740;28;20198;-76
2022/08/21 03:46:01;;;;;;;14.77;6.53;;;;;;;-145.69;100.00;71782.47;5072668;28;20203;-76
2022/08/21 03:48:28;;;;;;;17.87;7.03;;;;;;;-145.69;100.00;71786.47;5072586;28;20325;-76
2022/08/21 03:50:54;;;;;;;24.23;7.20;;;;;;;-145.69;100.00;71784.47;5072621;28;20205;-76
2022/08/21 03:53:22;;;;;;;21.60;7.87;;;;;;;-145.69;100.00;71780.50;5072354;28;20284;-76
2022/08/21 03:55:52;;;;;;;22.63;8.13;;;;;;;-145.69;100.00;71776.50;5074675;28;20199;-76
2022/08/21 03:58:22;;;;;;;17.13;7.77;;;;;;;-145.69;100.00;71780.50;5076572;28;20230;-76
2022/08/21 04:00:51;;;;;;;19.47;7.40;;;;;;;-145.69;100.00;71788.44;5076391;28;20225;-76
2022/08/21 04:03:19;;;;;;;18.47;7.60;;;;;;;-145.69;100.00;71794.41;5076462;28;20207;-76
2022/08/21 04:05:46;;;;;;;15.77;6.30;;;;;;;-145.69;100.00;71812.31;5076342;28;20210;-76
2022/08/21 04:08:18;;;;;;;16.07;6.27;;;;;;;-145.69;100.00;71824.25;5076196;28;20198;-76
2022/08/21 04:10:47;;;;;;;16.07;7.10;;;;;;;-145.69;100.00;71818.31;5076016;28;20588;-76
2022/08/21 04:13:15;;;;;;;18.20;8.53;;;;;;;-145.69;100.00;71814.31;5076238;28;20238;-76
2022/08/21 04:15:42;;;;;;;26.53;8.27;;;;;;;-145.69;100.00;71794.41;5076117;28;20199;-76
2022/08/21 04:18:09;;;;;;;22.37;7.80;;;;;;;-145.69;100.00;71792.44;5075941;28;20209;-76
2022/08/21 04:20:36;;;;;;;18.60;7.17;;;;;;;-145.69;100.00;71792.44;5075608;28;20673;-76
2022/08/21 04:23:03;;;;;;;18.30;8.20;;;;;;;-145.69;100.00;71788.44;5076079;28;20195;-77
2022/08/21 04:25:30;;;;;;;21.53;7.97;;;;;;;-145.69;100.00;71812.31;5075643;28;20661;-77
2022/08/21 04:27:57;;;;;;;23.60;7.87;;;;;;;-145.69;100.00;71812.31;5076135;28;20206;-76
2022/08/21 04:30:25;;;;;;;20.67;8.17;;;;;;;-145.69;100.00;71808.34;5064737;28;20558;-77
2022/08/21 04:32:52;;;;;;;25.77;8.40;;;;;;;-145.69;100.00;71808.34;5055847;28;20231;-77
2022/08/21 04:35:22;;;;;;;17.87;7.90;;;;;;;-145.69;100.00;71812.31;5068485;28;20205;-76
2022/08/21 04:37:49;;;;;;;20.07;8.30;;;;;;;-145.69;100.00;71810.34;5075644;28;20206;-77
2022/08/21 04:40:19;;;;;;;16.67;8.37;;;;;;;-145.69;100.00;71808.34;5075472;28;20205;-76
2022/08/21 04:42:49;;;;;;;19.47;8.70;;;;;;;-145.69;100.00;71816.31;5075636;28;20199;-77
2022/08/21 04:45:19;;;;;;;19.00;7.90;;;;;;;-145.69;100.00;71804.38;5075448;28;20206;-76
2022/08/21 04:47:48;;;;;;;20.97;8.77;;;;;;;-145.69;100.00;71808.34;5075197;28;20325;-76
2022/08/21 04:50:14;;;;;;;24.97;7.73;;;;;;;-145.69;100.00;71810.34;5075770;28;20205;-76
2022/08/21 04:52:41;;;;;;;19.53;8.87;;;;;;;-145.69;100.00;71810.34;5075577;28;20218;-77
2022/08/21 04:55:07;;;;;;;26.00;9.30;;;;;;;-145.69;100.00;71796.41;5075075;28;20217;-77
2022/08/21 04:57:34;;;;;;;25.43;9.43;;;;;;;-145.69;100.00;71796.41;5075387;28;20209;-75
2022/08/21 05:00:02;;;;;;;23.40;8.60;;;;;;;-145.69;100.00;71800.38;5075192;28;20198;-76
2022/08/21 05:02:29;;;;;;;26.27;8.93;;;;;;;-145.69;100.00;71804.38;5075198;28;20199;-77
2022/08/21 05:04:58;;;;;;;23.07;7.83;;;;;;;-145.69;100.00;71800.38;5075280;28;20198;-76
2022/08/21 05:07:29;;;;;;;22.13;8.77;;;;;;;-145.69;100.00;71794.41;5074274;28;20230;-75
2022/08/21 05:09:56;;;;;;;22.87;7.93;;;;;;;-145.69;100.00;71788.44;5075039;28;20202;-76
2022/08/21 05:12:23;;;;;;;26.73;8.47;;;;;;;-145.69;100.00;71788.44;5074878;28;20724;-77
2022/08/21 05:14:50;;;;;;;30.10;9.53;;;;;;;-145.69;100.00;71776.50;5074846;28;20210;-76
2022/08/21 05:17:16;;;;;;;19.43;9.13;;;;;;;-145.69;100.00;71778.50;5074759;28;20210;-77
2022/08/21 05:19:43;;;;;;;21.33;8.37;;;;;;;-145.69;100.00;71778.50;5074960;28;20211;-76
2022/08/21 05:22:11;;;;;;;24.30;8.63;;;;;;;-145.69;100.00;71780.50;5075487;28;20248;-76
2022/08/21 05:24:38;;;;;;;28.87;9.37;;;;;;;-145.69;100.00;71776.50;5074285;28;20668;-76
2022/08/21 05:27:06;;;;;;;23.07;8.37;;;;;;;-145.69;100.00;71776.50;5075050;28;20210;-76
2022/08/21 05:29:34;;;;;;;21.30;9.20;;;;;;;-145.69;100.00;71766.56;5074531;28;20198;-75
2022/08/21 05:32:00;;;;;;;19.27;8.60;;;;;;;-145.69;100.00;71764.56;5074453;28;20669;-76
2022/08/21 05:34:27;;;;;;;32.55;12.55;;;;;;;-145.69;100.00;71744.66;5073492;28;20461;-76
2022/08/21 05:36:53;;;;;;;28.40;9.50;;;;;;;-145.69;100.00;71738.69;5074651;28;20203;-77
2022/08/21 05:39:21;;;;;;;24.57;8.80;;;;;;;-145.69;100.00;71734.72;5074247;28;20199;-76
2022/08/21 05:41:47;;;;;;;23.60;8.83;;;;;;;-145.69;100.00;71732.72;5074578;28;20203;-76
2022/08/21 05:44:14;;;;;;;26.97;9.20;;;;;;;-145.69;100.00;71724.75;5074828;28;20206;-76
2022/08/21 05:46:40;;;;;;;23.73;8.73;;;;;;;-145.69;100.00;71710.84;5074369;28;20448;-76
2022/08/21 05:49:07;;;;;;;27.97;9.60;;;;;;;-145.69;100.00;71700.88;5074685;28;20207;-76
2022/08/21 05:51:34;;;;;;;24.40;9.73;;;;;;;-145.69;100.00;71696.91;5074116;28;20202;-76
2022/08/21 05:54:00;;;;;;;30.43;9.60;;;;;;;-145.69;100.00;71686.97;5073779;28;20222;-76
2022/08/21 05:56:28;;;;;;;28.47;10.83;;;;;;;-145.69;100.00;71679.00;5074108;28;20209;-76
2022/08/21 05:58:55;;;;;;;23.83;9.07;;;;;;;-145.69;100.00;71665.06;5074134;28;20569;-76
2022/08/21 06:01:22;;;;;;;28.57;10.77;;;;;;;-145.69;100.00;71657.09;5074100;28;20281;-76
2022/08/21 06:03:48;;;;;;;32.63;10.27;;;;;;;-145.69;100.00;71639.19;5074106;28;20203;-77
2022/08/21 06:06:15;;;;;;;23.93;10.10;;;;;;;-145.69;100.00;71631.25;5073898;28;20202;-76
2022/08/21 06:08:42;;;;;;;26.00;9.67;;;;;;;-145.69;100.00;71621.28;5073595;28;20223;-76
2022/08/21 06:11:09;;;;;;;25.67;9.90;;;;;;;-145.69;100.00;71617.31;5073608;28;20320;-75
2022/08/21 06:13:38;;;;;;;25.93;9.80;;;;;;;-145.69;100.00;71609.34;5073700;28;20226;-76
2022/08/21 06:16:09;;;;;;;21.97;10.70;;;;;;;-145.69;100.00;71599.41;5073804;28;20199;-76
2022/08/21 06:18:36;;;;;;;20.90;9.47;;;;;;;-145.69;100.00;71593.44;5073584;28;20222;-76
2022/08/21 06:21:03;;;;;;;22.67;8.73;;;;;;;-145.69;100.00;71585.47;5073533;28;20206;-75
2022/08/21 06:23:29;;;;;;;22.17;8.80;;;;;;;-145.69;100.00;71575.50;5073281;28;20195;-76
2022/08/21 06:25:56;;;;;;;19.80;9.37;;;;;;;-145.69;100.00;71565.56;5073674;28;20233;-75
2022/08/21 06:28:23;;;;;;;20.87;9.37;;;;;;;-145.69;100.00;71553.63;5073670;28;20199;-76
2022/08/21 06:30:51;;;;;;;21.45;9.23;;;;;;;-145.69;100.00;71537.72;5073589;28;20329;-76
2022/08/21 06:33:18;;;;;;;21.00;10.27;;;;;;;-145.69;100.00;71529.75;5073500;28;20222;-75
2022/08/21 06:35:44;;;;;;;25.88;10.02;;;;;;;-145.69;100.00;71501.88;5058089;28;20199;-76
2022/08/21 06:38:11;;;;;;;24.08;10.85;;;;;;;-145.69;100.00;71482.00;5066012;28;20199;-76
2022/08/21 06:40:38;;;;;;;24.50;9.73;;;;;;;-145.69;100.00;71448.16;5073404;28;20199;-76
2022/08/21 06:43:10;;;;;;;24.05;10.60;;;;;;;-145.69;100.00;71420.31;5073295;28;20198;-75
2022/08/21 06:45:36;;;;;;;38.58;11.65;;;;;;;-145.69;100.00;71394.44;5073396;28;20201;-75
2022/08/21 06:48:06;;;;;;;22.40;10.15;;;;;;;-145.69;100.00;71374.53;5073048;28;20234;-77
2022/08/21 06:50:33;;;;;;;20.63;10.65;;;;;;;-145.69;100.00;71358.63;5073084;28;20206;-76
2022/08/21 06:53:02;;;;;;;18.77;9.20;;;;;;;-145.69;100.00;71338.72;5072933;28;20237;-76
2022/08/21 06:55:28;;;;;;;19.58;9.13;;;;;;;-145.69;100.00;71312.84;5073372;28;20253;-76
2022/08/21 06:57:55;;;;;;;18.65;9.23;;;;;;;-145.69;100.00;71298.94;5073126;28;20231;-76
2022/08/21 07:00:22;;;;;;;17.63;8.35;;;;;;;-145.69;100.00;71283.00;5073031;28;20653;-75
2022/08/21 07:02:48;;;;;;;23.33;8.27;;;;;;;-145.69;100.00;71257.13;5072995;28;20201;-75
2022/08/21 07:05:16;;;;;;;20.80;9.13;;;;;;;-145.69;100.00;71243.22;5073042;28;20245;-75
2022/08/21 07:07:43;;;;;;;16.58;8.43;;;;;;;-145.69;100.00;71231.28;5072910;28;20206;-76
2022/08/21 07:10:10;;;;;;;19.17;8.00;;;;;;;-145.69;100.00;71211.38;5072955;28;20653;-76
2022/08/21 07:12:36;;;;;;;23.38;9.10;;;;;;;-145.69;100.00;71195.47;5072944;28;20260;-75
2022/08/21 07:15:03;;;;;;;19.52;8.43;;;;;;;-145.69;100.00;71171.56;5073037;28;20253;-75
2022/08/21 07:17:29;;;;;;;16.35;7.80;;;;;;;-145.69;100.00;71161.63;5072376;28;20199;-75
2022/08/21 07:19:57;;;;;;;12.93;7.15;;;;;;;-145.69;100.00;71139.75;5072739;28;20671;-75
2022/08/21 07:22:27;;;;;;;18.70;5.68;;;;;;;-145.69;100.00;71173.56;5071882;28;20537;-76
2022/08/21 07:24:53;;;;;;;9.85;4.07;;;;;;;-145.69;100.00;71189.47;5072871;28;20207;-76
2022/08/21 07:27:20;;;;;;;17.27;4.97;;;;;;;-145.69;100.00;71161.63;5072736;28;20206;-75
2022/08/21 07:29:47;;;;;;;15.77;5.47;;;;;;;-145.69;100.00;71123.81;5073591;28;20205;-75
2022/08/21 07:32:14;;;;;;;10.68;4.75;;;;;;;-145.69;100.00;71105.91;5076734;28;20210;-76
2022/08/21 07:34:41;;;;;;;15.32;4.15;;;;;;;-145.69;100.00;71099.94;5076793;28;20284;-77
2022/08/21 07:37:07;;;;;;;12.95;3.80;;;;;;;-145.69;100.00;71078.06;5076519;28;20201;-76
2022/08/21 07:39:36;;;;;;;11.48;3.35;;;;;;;-145.69;100.00;71072.09;5076706;28;20729;-76
2022/08/21 07:42:03;;;;;;;9.18;3.47;;;;;;;-145.69;100.00;71050.22;5076727;28;20198;-76
2022/08/21 07:44:29;;;;;;;8.57;3.33;;;;;;;-145.69;100.00;71036.28;5076682;28;20202;-75
2022/08/21 07:46:56;;;;;;;8.32;3.40;;;;;;;-145.69;100.00;71022.34;5076434;28;20559;-75
2022/08/21 07:49:22;;;;;;;6.88;3.17;;;;;;;-145.69;100.00;71016.38;5076791;28;20290;-76
2022/08/21 07:51:49;;;;;;;12.30;3.42;;;;;;;-145.69;100.00;70996.47;5076349;28;20277;-76
2022/08/21 07:54:16;;;;;;;5.30;2.95;;;;;;;-145.69;100.00;70992.50;5075078;28;20226;-76
2022/08/21 07:56:44;;;;;;;6.53;2.88;;;;;;;-145.69;100.00;70984.53;5065845;28;20196;-75
2022/08/21 07:59:10;;;;;;;7.90;3.08;;;;;;;-145.69;100.00;70964.66;5064161;28;20523;-76
2022/08/21 08:01:36;;;;;;;13.27;3.30;;;;;;;-145.69;100.00;70958.69;5075940;28;20198;-77
2022/08/21 08:04:03;;;;;;;8.88;2.65;;;;;;;-145.69;100.00;70960.66;5076466;28;20206;-76
2022/08/21 08:06:30;;;;;;;9.32;3.25;;;;;;;-145.69;100.00;70932.81;5076505;28;20249;-76
2022/08/21 08:08:57;;;;;;;8.10;3.05;;;;;;;-145.69;100.00;70928.84;5076369;28;20211;-76
2022/08/21 08:11:23;;;;;;;9.82;2.65;;;;;;;-145.69;100.00;70916.91;5075964;28;20187;-76
2022/08/21 08:13:52;;;;;;;6.97;2.67;;;;;;;-145.69;100.00;70893.03;5075706;28;20226;-76
2022/08/21 08:16:19;;;;;;;13.45;2.95;;;;;;;-145.69;100.00;70877.09;5075919;28;20291;-76
2022/08/21 08:18:46;;;;;;;9.48;2.63;;;;;;;-145.69;100.00;70859.19;5075800;28;20297;-76
2022/08/21 08:21:13;;;;;;;7.97;2.53;;;;;;;-145.69;100.00;70861.19;5076012;28;20202;-76
2022/08/21 08:23:40;;;;;;;8.48;2.78;;;;;;;-145.69;100.00;70865.16;5075468;28;20213;-75
2022/08/21 08:26:07;;;;;;;7.13;2.88;;;;;;;-145.69;100.00;70837.31;5075860;28;20199;-75
2022/08/21 08:28:34;;;;;;;5.00;2.80;;;;;;;-145.69;100.00;70813.44;5075612;28;20199;-75
2022/08/21 08:31:02;;;;;;;5.13;2.33;;;;;;;-145.69;100.00;70793.53;5075647;28;20199;-75
2022/08/21 08:33:29;;;;;;;5.65;2.38;;;;;;;-145.69;100.00;70773.66;5070075;28;20205;-74
2022/08/21 08:35:55;;;;;;;6.55;3.47;;;;;;;-145.69;98.60;70767.69;5055691;28;20211;-77
2022/08/21 08:38:24;;;;;;;9.70;2.92;;;;;;;-145.69;98.72;70767.69;5059358;28;20203;-76
2022/08/21 08:40:59;;;;;;;10.82;2.75;;;;;;;-145.69;100.00;70781.59;5075448;28;20206;-74
2022/08/21 08:43:28;;;;;;;5.10;2.65;;;;;;;-145.69;99.28;70765.69;5075748;28;20553;-76
2022/08/21 08:45:58;;;;;;;10.68;2.20;;;;;;;-145.69;90.31;70761.72;5075533;28;20267;-75
2022/08/21 08:48:37;;;;;;;6.00;2.40;;;;;;;-145.69;100.00;70739.81;5075308;28;20318;-77
2022/08/21 08:51:09;;;;;;;12.73;2.33;;;;;;;-145.69;90.91;70719.94;5075267;28;20194;-76
2022/08/21 08:53:47;;;;;;;5.57;1.98;;;;;;;-145.69;69.96;70725.91;5074951;28;20199;-76
2022/08/21 08:56:14;;;;;;;15.60;1.88;;;;;;;-145.69;74.55;70713.97;5075346;28;20650;-76
2022/08/21 08:58:44;;;;;;;3.97;1.70;;;;;;;-145.69;62.87;70708.00;5075421;28;20285;-76
2022/08/21 09:01:16;;;;;;;4.78;1.80;;;;;;;-145.69;69.94;70706.00;5074929;28;20195;-75
2022/08/21 09:03:49;;;;;;;6.88;1.95;;;;;;;-145.69;65.29;70721.91;5075169;28;20203;-76
2022/08/21 09:06:28;;;;;;;8.00;2.50;;;;;;;-145.69;73.25;70706.00;5075305;28;20207;-75
2022/08/21 09:09:03;;;;;;;7.20;3.03;;;;;;;-145.69;70.25;70686.09;5075134;28;20199;-75
2022/08/21 09:11:36;;;;;;;9.38;2.30;;;;;;;-145.69;77.67;70680.13;5075601;28;20560;-75
2022/08/21 09:14:16;;;;;;;7.00;2.28;;;;;;;-145.69;76.56;70666.22;5075000;28;20230;-75
2022/08/21 09:16:53;;;;;;;5.97;2.20;;;;;;;-145.69;75.80;70660.25;5074826;28;20569;-77
2022/08/21 09:19:36;;;;;;;8.32;2.00;;;;;;;-145.69;76.16;70654.28;5075061;28;20198;-76
2022/08/21 09:22:09;;;;;;;7.68;2.40;;;;;;;-145.69;70.57;70646.31;5054410;28;20214;-76
2022/08/21 09:24:47;;;;;;;7.20;2.08;;;;;;;-145.69;69.69;70646.31;5062130;28;20679;-75
2022/08/21 09:27:16;;;;;;;7.30;2.10;;;;;;;-145.69;64.91;70654.28;5061556;28;20201;-75
2022/08/21 09:29:47;;;;;;;5.78;1.90;;;;;;;-145.69;69.92;70648.31;5059409;28;20203;-76
2022/08/21 09:32:19;;;;;;;5.63;1.83;;;;;;;-145.69;69.41;70630.41;5074661;28;20202;-76
2022/08/21 09:34:59;;;;;;;6.97;1.75;;;;;;;-145.69;69.14;70634.38;5071225;28;20249;-76
2022/08/21 09:37:28;;;;;;;8.45;2.03;;;;;;;-145.69;65.28;70628.41;5054218;28;20203;-74
2022/08/21 09:39:57;;;;;;;7.13;1.90;;;;;;;-145.69;60.04;70624.44;5054793;28;20203;-76
2022/08/21 09:42:26;;;;;;;8.73;1.70;;;;;;;-145.69;60.04;70606.53;5054609;28;20218;-75
2022/08/21 09:45:10;;;;;;;8.38;1.63;;;;;;;-145.69;61.81;70596.59;5059627;28;20237;-77
2022/08/21 09:47:37;;;;;;;3.58;1.60;;;;;;;-145.69;57.05;70592.59;5074467;28;20590;-76
2022/08/21 09:50:12;;;;;;;5.82;1.60;;;;;;;-145.69;60.50;70564.75;5074111;28;20199;-76
2022/08/21 09:52:46;;;;;;;3.05;1.60;;;;;;;-145.69;61.14;70528.94;5060567;28;20202;-76
2022/08/21 09:58:08;;;;;;;3.83;1.23;;;;;;;-145.69;54.08;70522.97;5054005;28;20202;-75
2022/08/21 10:00:36;;;;;;;5.93;1.52;;;;;;;-145.69;55.44;70540.88;5067001;28;20198;-74
2022/08/21 10:03:15;;;;;;;3.70;1.25;;;;;;;-145.69;60.94;70528.94;5073973;28;20278;-77
2022/08/21 10:05:57;;;;;;;4.40;1.52;;;;;;;-145.69;58.23;70513.03;5073444;28;20213;-77
2022/08/21 10:08:25;;;;;;;3.95;1.30;;;;;;;-145.69;63.31;70493.13;5073986;28;20198;-77
2022/08/21 10:10:56;;;;;;;3.67;1.67;;;;;;;-145.69;51.76;70461.31;5074137;28;20534;-76
2022/08/21 10:13:30;;;;;;;6.65;1.50;;;;;;;-145.69;50.19;70455.34;5074035;28;20203;-76
2022/08/21 10:16:07;;;;;;;5.40;1.42;;;;;;;-145.69;52.14;70471.25;5073003;28;20824;-76
2022/08/21 10:18:40;;;;;;;9.10;1.80;;;;;;;-145.69;57.28;70471.25;5073725;28;20202;-76
2022/08/21 10:21:16;;;;;;;4.15;1.17;;;;;;;-145.69;47.96;70491.13;5073478;28;20550;-76
2022/08/21 10:24:08;;;;;;;2.40;1.30;;;;;;;-145.69;51.55;70471.25;5073860;28;20817;-75
2022/08/21 10:26:45;;;;;;;3.80;1.40;;;;;;;-145.69;57.26;70459.31;5073787;28;20199;-75
2022/08/21 10:29:24;;;;;;;6.93;1.65;;;;;;;-145.69;51.28;70467.28;5064258;28;20214;-75
2022/08/21 10:32:01;;;;;;;5.72;1.65;;;;;;;-145.69;52.56;70467.28;5053663;28;20207;-75
2022/08/21 10:34:43;;;;;;;3.47;1.50;;;;;;;-145.69;58.12;70431.47;5055508;28;20582;-75
2022/08/21 10:37:23;;;;;;;4.28;1.15;;;;;;;-145.69;51.76;70409.56;5053457;28;20282;-75
2022/08/21 10:40:03;;;;;;;2.08;1.33;;;;;;;-145.69;52.84;70379.72;5053340;28;20199;-75
2022/08/21 10:42:36;;;;;;;2.95;1.45;;;;;;;-145.69;52.50;70377.75;5053272;28;20257;-75
2022/08/21 10:45:12;;;;;;;3.78;1.40;;;;;;;-145.69;48.72;70403.59;5069009;28;20202;-75
2022/08/21 10:47:46;;;;;;;4.22;1.30;;;;;;;-145.69;49.68;70397.63;5072707;28;20265;-75
2022/08/21 10:50:25;;;;;;;3.80;1.50;;;;;;;-145.69;46.78;70373.78;5073091;28;20207;-75
2022/08/21 10:53:05;;;;;;;2.42;1.35;;;;;;;-145.69;47.19;70363.81;5073309;28;20564;-75
2022/08/21 10:55:36;;;;;;;5.10;1.50;;;;;;;-145.69;50.91;70335.97;5073094;28;20234;-77
2022/08/21 10:58:08;;;;;;;4.32;1.60;;;;;;;-145.69;48.69;70312.09;5072859;28;20281;-77
2022/08/21 11:00:42;;;;;;;3.47;1.30;;;;;;;-145.69;50.04;70320.06;5072947;28;20230;-75
2022/08/21 11:03:13;;;;;;;5.15;1.65;;;;;;;-145.69;47.59;70345.91;5073145;28;20206;-75
2022/08/21 11:05:45;;;;;;;3.85;1.50;;;;;;;-145.69;48.49;70330.00;5072575;28;20206;-76
2022/08/21 11:08:18;;;;;;;4.93;1.38;;;;;;;-145.69;48.53;70296.19;5072985;28;20202;-76
2022/08/21 11:10:48;;;;;;;2.88;1.55;;;;;;;-145.69;53.42;70264.34;5072956;28;20199;-76
2022/08/21 11:13:20;;;;;;;3.25;1.45;;;;;;;-145.69;45.77;70268.34;5072523;28;20195;-75
2022/08/21 11:15:57;;;;;;;3.92;1.33;;;;;;;-145.69;43.35;70292.19;5073141;28;20230;-76